EKRK

Copenhagen Roskilde Airport

Copenhagen, Denmark
TAF EKRK 220220Z 2203/2212 25015KT 9999 SCT030 TEMPO 2203/2212 24022G32KT 4000 SHRA BKN010 BKN030CB
Issued Valid From Valid To
Sep-22 @ 02:20 UTC
(2 hours ago)
Sep-22 @ 03:00 UTC
(an hour ago)
Sep-22 @ 12:00 UTC
(in 8 hours)
to
to
TAF EKRK 220220Z 2203/2212 25015KT 9999 SCT030 TEMPO 2203/2212 24022G32KT 4000 SHRA BKN010 BKN030CB
Issued Sep-22 @ 02:20 UTC
(2 hours ago)
Valid From Sep-22 @ 03:00 UTC
(an hour ago)
Valid To Sep-22 @ 12:00 UTC
(in 8 hours)
-
-